createdAt,value
2022-10-31T00:01:21.195Z,80.70
2022-10-31T00:03:48.984Z,82.70
2022-10-31T00:06:19.437Z,82.20
2022-10-31T00:08:47.627Z,81.10
2022-10-31T00:11:15.209Z,81.10
2022-10-31T00:13:42.634Z,80.20
2022-10-31T00:16:22.100Z,80.70
2022-10-31T00:18:51.042Z,81.40
2022-10-31T00:21:18.672Z,81.90
2022-10-31T00:23:45.918Z,82.60
2022-10-31T00:26:13.661Z,81.50
2022-10-31T00:28:40.979Z,80.40
2022-10-31T00:31:09.751Z,79.00
2022-10-31T00:33:38.781Z,79.10
2022-10-31T00:36:08.008Z,79.90
2022-10-31T00:38:35.885Z,79.50
2022-10-31T00:41:03.372Z,78.30
2022-10-31T00:43:30.644Z,78.00
2022-10-31T00:45:59.614Z,78.30
2022-10-31T00:48:26.942Z,79.60
2022-10-31T00:50:54.435Z,79.60
2022-10-31T00:53:22.305Z,79.10
2022-10-31T00:55:49.821Z,79.20
2022-10-31T00:58:17.599Z,78.60
2022-10-31T01:00:57.277Z,78.10
2022-10-31T01:03:27.969Z,76.60
2022-10-31T01:06:04.478Z,79.20
2022-10-31T01:08:34.641Z,81.50
2022-10-31T01:11:06.061Z,82.10
2022-10-31T01:13:34.661Z,81.50
2022-10-31T01:16:03.671Z,80.30
2022-10-31T01:18:34.550Z,79.80
2022-10-31T01:21:11.888Z,78.60
2022-10-31T01:23:39.384Z,78.50
2022-10-31T01:26:08.549Z,78.10
2022-10-31T01:28:38.558Z,79.20
2022-10-31T01:31:08.817Z,79.20
2022-10-31T01:33:37.487Z,79.10
2022-10-31T01:36:26.568Z,78.60
2022-10-31T01:38:57.283Z,78.00
2022-10-31T01:41:26.756Z,78.30
2022-10-31T01:43:57.165Z,81.50
2022-10-31T01:46:45.437Z,83.20
2022-10-31T01:49:33.442Z,84.70
2022-10-31T01:52:19.902Z,86.10
2022-10-31T01:54:54.820Z,86.10
2022-10-31T01:57:23.816Z,87.20
2022-10-31T01:59:58.267Z,87.80
2022-10-31T02:02:27.813Z,88.20
2022-10-31T02:04:55.733Z,88.50
2022-10-31T02:07:32.080Z,86.10
2022-10-31T02:10:01.590Z,84.00
2022-10-31T02:12:31.236Z,83.70
2022-10-31T02:15:01.756Z,83.80
2022-10-31T02:17:31.067Z,83.00
2022-10-31T02:20:15.882Z,81.70
2022-10-31T02:23:11.089Z,80.00
2022-10-31T02:25:58.099Z,82.90
2022-10-31T02:28:54.032Z,83.40
2022-10-31T02:31:42.619Z,83.30
2022-10-31T02:34:37.806Z,82.40
2022-10-31T02:37:09.135Z,82.80
2022-10-31T02:39:50.249Z,80.60
2022-10-31T02:42:36.247Z,80.40
2022-10-31T02:45:13.821Z,86.90
2022-10-31T02:47:42.796Z,88.20
2022-10-31T02:50:39.189Z,89.30
2022-10-31T02:53:06.979Z,88.40
2022-10-31T02:55:35.071Z,85.00
2022-10-31T02:58:12.952Z,84.40
2022-10-31T03:00:59.528Z,83.90
2022-10-31T03:03:44.162Z,83.70
2022-10-31T03:06:25.089Z,82.70
2022-10-31T03:09:08.114Z,81.70
2022-10-31T03:11:58.379Z,78.20
2022-10-31T03:14:52.589Z,80.40
2022-10-31T03:17:40.865Z,82.20
2022-10-31T03:20:11.395Z,83.20
2022-10-31T03:22:43.497Z,82.20
2022-10-31T03:25:12.835Z,79.80
2022-10-31T03:27:42.198Z,80.40
2022-10-31T03:30:10.103Z,82.60
2022-10-31T03:32:55.902Z,81.10
2022-10-31T03:35:27.549Z,83.50
2022-10-31T03:37:56.541Z,85.10
2022-10-31T03:40:26.159Z,86.00
2022-10-31T03:42:59.621Z,85.90
2022-10-31T03:45:30.947Z,85.10
2022-10-31T03:48:00.661Z,81.50
2022-10-31T03:50:41.301Z,85.30
2022-10-31T03:53:17.776Z,87.10
2022-10-31T03:56:00.529Z,87.30
2022-10-31T03:58:38.542Z,86.30
2022-10-31T04:01:10.763Z,83.80
2022-10-31T04:03:40.012Z,81.80
2022-10-31T04:06:12.624Z,82.70
2022-10-31T04:08:49.273Z,83.40
2022-10-31T04:11:24.681Z,83.00
2022-10-31T04:14:13.318Z,82.80
2022-10-31T04:16:43.956Z,83.70
2022-10-31T04:19:14.008Z,84.90
2022-10-31T04:21:44.398Z,84.80
2022-10-31T04:24:12.249Z,84.90
2022-10-31T04:26:40.962Z,84.50
2022-10-31T04:29:08.403Z,85.20
2022-10-31T04:31:35.725Z,85.80
2022-10-31T04:34:03.307Z,85.30
2022-10-31T04:36:31.200Z,84.60
2022-10-31T04:38:59.874Z,84.40
2022-10-31T04:41:38.404Z,83.60
2022-10-31T04:44:13.401Z,82.80
2022-10-31T04:46:41.377Z,82.20
2022-10-31T04:49:09.758Z,82.00
2022-10-31T04:51:37.631Z,80.30
2022-10-31T04:54:06.048Z,79.90
2022-10-31T04:56:33.490Z,80.60
2022-10-31T04:59:11.541Z,80.80
2022-10-31T05:01:49.662Z,83.70
2022-10-31T05:04:22.482Z,83.60
2022-10-31T05:06:50.100Z,82.80
2022-10-31T05:09:17.395Z,82.50
2022-10-31T05:11:45.807Z,82.50
2022-10-31T05:14:33.803Z,81.50
2022-10-31T05:17:19.932Z,81.20
2022-10-31T05:20:08.712Z,82.10
2022-10-31T05:22:57.790Z,82.20
2022-10-31T05:25:28.637Z,81.30
2022-10-31T05:27:57.607Z,79.30
2022-10-31T05:30:28.958Z,81.80
2022-10-31T05:32:56.686Z,83.00
2022-10-31T05:35:39.195Z,82.90
2022-10-31T05:38:24.836Z,83.10
2022-10-31T05:40:58.835Z,85.20
2022-10-31T05:43:26.336Z,83.80
2022-10-31T05:45:59.995Z,81.20
2022-10-31T05:48:46.352Z,81.70
2022-10-31T05:51:34.387Z,81.50
2022-10-31T05:54:10.706Z,82.20
2022-10-31T05:56:40.886Z,82.80
2022-10-31T05:59:08.097Z,81.90
2022-10-31T06:01:35.854Z,82.90
2022-10-31T06:04:06.884Z,84.70
2022-10-31T06:06:36.378Z,84.50
2022-10-31T06:09:03.837Z,84.10
2022-10-31T06:11:35.466Z,84.50
2022-10-31T06:14:02.810Z,84.90
2022-10-31T06:16:44.363Z,83.80
2022-10-31T06:19:38.211Z,82.70
2022-10-31T06:22:05.923Z,82.00
2022-10-31T06:24:34.040Z,81.20
2022-10-31T06:27:10.012Z,80.50
2022-10-31T06:29:37.426Z,79.70
2022-10-31T06:32:07.261Z,79.00
2022-10-31T06:34:40.927Z,78.30
2022-10-31T06:37:10.884Z,78.50
2022-10-31T06:40:08.558Z,79.00
2022-10-31T06:43:04.297Z,78.80
2022-10-31T06:45:33.495Z,79.60
2022-10-31T06:48:21.380Z,79.70
2022-10-31T06:51:12.054Z,79.40
2022-10-31T06:53:39.384Z,78.80
2022-10-31T06:56:09.439Z,78.40
2022-10-31T06:58:42.006Z,79.00
2022-10-31T07:01:11.841Z,78.90
2022-10-31T07:03:40.056Z,78.60
2022-10-31T07:06:08.707Z,78.20
2022-10-31T07:08:36.083Z,77.80
2022-10-31T07:11:04.410Z,77.10
2022-10-31T07:13:31.866Z,77.00
2022-10-31T07:16:07.864Z,76.80
2022-10-31T07:18:36.831Z,76.40
2022-10-31T07:21:04.440Z,75.10
2022-10-31T07:23:33.460Z,76.80
2022-10-31T07:26:20.969Z,78.40
2022-10-31T07:28:49.312Z,78.70
2022-10-31T07:31:20.437Z,79.60
2022-10-31T07:33:47.845Z,80.90
2022-10-31T07:36:45.339Z,80.60
2022-10-31T07:39:13.850Z,79.20
2022-10-31T07:41:42.263Z,78.10
2022-10-31T07:44:10.548Z,77.60
2022-10-31T07:46:56.447Z,77.80
2022-10-31T07:49:47.454Z,77.20
2022-10-31T07:52:33.524Z,76.40
2022-10-31T07:55:21.610Z,75.10
2022-10-31T07:58:07.038Z,74.40
2022-10-31T08:00:43.230Z,73.40
2022-10-31T08:03:16.190Z,73.90
2022-10-31T08:06:03.722Z,74.60
2022-10-31T08:08:51.711Z,74.80
2022-10-31T08:11:20.336Z,74.10
2022-10-31T08:13:48.690Z,73.30
2022-10-31T08:16:16.920Z,71.90
2022-10-31T08:18:54.633Z,71.70
2022-10-31T08:21:22.974Z,70.80
2022-10-31T08:23:50.653Z,70.10
2022-10-31T08:26:21.747Z,70.60
2022-10-31T08:28:52.653Z,70.00
2022-10-31T08:31:25.394Z,68.60
2022-10-31T08:34:14.243Z,68.70
2022-10-31T08:37:00.553Z,67.20
2022-10-31T08:39:36.254Z,66.60
2022-10-31T08:42:04.970Z,65.50
2022-10-31T08:44:32.264Z,65.90
2022-10-31T08:46:59.767Z,65.90
2022-10-31T08:49:27.567Z,67.00
2022-10-31T08:51:56.088Z,67.20
2022-10-31T08:54:25.592Z,67.30
2022-10-31T08:56:56.775Z,65.20
2022-10-31T08:59:41.462Z,66.40
2022-10-31T09:02:27.580Z,66.70
2022-10-31T09:04:59.778Z,66.50
2022-10-31T09:07:27.231Z,65.90
2022-10-31T09:09:56.907Z,65.50
2022-10-31T09:12:25.382Z,66.90
2022-10-31T09:15:11.160Z,65.40
2022-10-31T09:17:49.221Z,64.70
2022-10-31T09:20:25.067Z,64.30
2022-10-31T09:23:00.504Z,63.20
2022-10-31T09:25:30.097Z,62.30
2022-10-31T09:28:50.541Z,62.10
2022-10-31T09:31:28.855Z,62.70
2022-10-31T09:34:35.432Z,60.50
2022-10-31T09:37:06.327Z,62.20
2022-10-31T09:39:36.065Z,61.30
2022-10-31T09:42:30.866Z,60.00
2022-10-31T09:45:09.396Z,59.00
2022-10-31T09:48:03.872Z,57.70
2022-10-31T09:50:48.628Z,57.00
2022-10-31T09:53:42.785Z,57.60
2022-10-31T09:56:17.871Z,57.30
2022-10-31T09:59:07.238Z,58.20
2022-10-31T10:01:40.352Z,56.60
2022-10-31T10:04:48.308Z,55.70
2022-10-31T10:07:29.897Z,53.40
2022-10-31T10:10:51.918Z,51.70
2022-10-31T10:14:02.680Z,49.90
2022-10-31T10:16:48.792Z,46.90
2022-10-31T10:19:40.550Z,43.40
2022-10-31T10:22:21.251Z,40.80
2022-10-31T10:24:58.646Z,39.90
2022-10-31T10:27:38.751Z,37.50
2022-10-31T10:30:16.430Z,37.20
2022-10-31T10:32:50.865Z,37.50
2022-10-31T10:35:33.675Z,37.10
2022-10-31T10:38:39.284Z,38.00
2022-10-31T10:41:14.227Z,39.20
2022-10-31T10:43:41.578Z,40.20
2022-10-31T10:47:06.411Z,41.00
2022-10-31T10:49:59.438Z,41.80
2022-10-31T10:52:50.175Z,43.50
2022-10-31T10:55:32.154Z,44.50
2022-10-31T10:58:10.993Z,44.90
2022-10-31T11:00:49.580Z,44.90
2022-10-31T11:03:19.418Z,45.00
2022-10-31T11:05:52.309Z,44.70
2022-10-31T11:08:34.443Z,44.50
2022-10-31T11:11:32.563Z,44.80
2022-10-31T11:14:26.919Z,45.10
2022-10-31T11:17:12.362Z,45.30
2022-10-31T11:19:40.076Z,46.60
2022-10-31T11:22:18.280Z,46.90
2022-10-31T11:24:48.195Z,46.70
2022-10-31T11:27:25.620Z,46.50
2022-10-31T11:29:58.196Z,46.00
2022-10-31T11:32:29.643Z,46.20
2022-10-31T11:35:01.895Z,44.90
2022-10-31T11:37:36.679Z,44.10
2022-10-31T11:40:08.628Z,44.60
2022-10-31T11:42:43.462Z,45.70
2022-10-31T11:45:20.593Z,45.80
2022-10-31T11:47:56.733Z,45.70
2022-10-31T11:50:48.887Z,45.50
2022-10-31T11:53:22.459Z,44.80
2022-10-31T11:56:06.176Z,45.30
2022-10-31T11:58:34.045Z,44.10
2022-10-31T12:01:01.255Z,43.60
2022-10-31T12:03:47.696Z,44.40
2022-10-31T12:06:40.560Z,43.80
2022-10-31T12:09:25.641Z,45.30
2022-10-31T12:12:09.568Z,45.00
2022-10-31T12:14:58.957Z,45.40
2022-10-31T12:20:48.698Z,43.40
2022-10-31T12:23:28.204Z,44.10
2022-10-31T12:26:42.208Z,43.80
2022-10-31T12:29:40.298Z,44.40
2022-10-31T12:32:19.519Z,43.90
2022-10-31T12:34:59.079Z,44.30
2022-10-31T12:37:55.260Z,45.30
2022-10-31T12:41:00.329Z,45.40
2022-10-31T12:43:37.039Z,44.20
2022-10-31T12:46:09.493Z,45.50
2022-10-31T12:49:04.332Z,44.60
2022-10-31T12:51:39.535Z,44.80
2022-10-31T12:54:44.040Z,43.60
2022-10-31T12:57:37.622Z,43.70
2022-10-31T13:00:17.197Z,43.40
2022-10-31T13:03:00.702Z,43.00
2022-10-31T13:09:28.647Z,42.50
2022-10-31T13:12:05.850Z,42.80
2022-10-31T13:14:42.940Z,44.00
2022-10-31T13:17:29.281Z,43.60
2022-10-31T13:20:15.890Z,43.30
2022-10-31T13:22:48.698Z,43.50
2022-10-31T13:25:40.590Z,42.60
2022-10-31T13:28:47.540Z,42.60
2022-10-31T13:31:15.021Z,42.30
2022-10-31T13:34:00.018Z,43.30
2022-10-31T13:36:41.311Z,42.50
2022-10-31T13:39:52.127Z,44.00
2022-10-31T13:42:40.046Z,43.00
2022-10-31T13:45:31.133Z,42.20
2022-10-31T13:48:21.400Z,42.20
2022-10-31T13:50:59.828Z,42.60
2022-10-31T13:53:57.979Z,42.00
2022-10-31T13:56:32.484Z,42.40
2022-10-31T13:59:10.838Z,41.00
2022-10-31T14:01:47.312Z,41.20
2022-10-31T14:04:31.954Z,40.50
2022-10-31T14:07:07.244Z,40.70
2022-10-31T14:09:38.819Z,40.70
2022-10-31T14:12:27.620Z,41.00
2022-10-31T14:15:15.285Z,41.80
2022-10-31T14:17:53.825Z,43.90
2022-10-31T14:20:43.412Z,43.80
2022-10-31T14:23:29.602Z,46.20
2022-10-31T14:26:32.082Z,46.20
2022-10-31T14:29:17.120Z,46.20
2022-10-31T14:31:58.275Z,44.20
2022-10-31T14:34:36.066Z,44.30
2022-10-31T14:37:26.938Z,42.50
2022-10-31T14:40:08.960Z,42.20
2022-10-31T14:42:58.074Z,43.20
2022-10-31T14:45:33.073Z,43.50
2022-10-31T14:48:23.760Z,44.50
2022-10-31T14:50:57.909Z,43.70
2022-10-31T14:53:35.931Z,44.50
2022-10-31T14:56:07.049Z,44.70
2022-10-31T14:58:38.382Z,46.50
2022-10-31T15:01:06.605Z,50.70
2022-10-31T15:03:44.825Z,53.30
2022-10-31T15:06:26.885Z,54.80
2022-10-31T15:08:55.950Z,56.20
2022-10-31T15:11:26.747Z,57.00
2022-10-31T15:13:56.247Z,58.50
2022-10-31T15:19:22.106Z,60.80
2022-10-31T15:21:52.497Z,61.80
2022-10-31T15:24:20.702Z,62.70
2022-10-31T15:26:51.973Z,63.80
2022-10-31T15:29:25.521Z,63.50
2022-10-31T15:31:58.386Z,63.30
2022-10-31T15:34:44.628Z,63.40
2022-10-31T15:37:14.921Z,63.30
2022-10-31T15:39:43.951Z,63.20
2022-10-31T15:42:25.790Z,62.80
2022-10-31T15:45:02.060Z,63.20
2022-10-31T15:47:31.961Z,62.80
2022-10-31T15:50:00.908Z,62.80
2022-10-31T15:52:41.019Z,63.20
2022-10-31T15:55:10.997Z,63.40
2022-10-31T15:57:47.558Z,63.60
2022-10-31T16:00:34.500Z,63.60
2022-10-31T16:03:17.069Z,63.60
2022-10-31T16:05:46.610Z,64.00
2022-10-31T16:08:31.711Z,66.10
2022-10-31T16:11:04.276Z,66.50
2022-10-31T16:13:42.447Z,66.80
2022-10-31T16:16:34.228Z,68.30
2022-10-31T16:19:05.855Z,69.30
2022-10-31T16:21:37.646Z,70.40
2022-10-31T16:24:21.589Z,70.70
2022-10-31T16:26:55.033Z,70.90
2022-10-31T16:29:42.642Z,71.30
2022-10-31T16:32:52.663Z,70.70
2022-10-31T16:35:32.972Z,71.10
2022-10-31T16:38:00.707Z,72.50
2022-10-31T16:40:29.521Z,74.10
2022-10-31T16:43:00.524Z,74.50
2022-10-31T16:45:36.544Z,74.80
2022-10-31T16:48:13.139Z,74.40
2022-10-31T16:50:40.805Z,75.80
2022-10-31T16:53:13.687Z,75.00
2022-10-31T16:55:54.068Z,73.60
2022-10-31T16:58:31.250Z,72.50
2022-10-31T17:00:59.402Z,71.20
2022-10-31T17:03:27.265Z,70.70
2022-10-31T17:05:56.647Z,70.40
2022-10-31T17:08:25.056Z,71.90
2022-10-31T17:10:55.113Z,72.10
2022-10-31T17:13:31.387Z,72.10
2022-10-31T17:16:01.410Z,72.80
2022-10-31T17:18:30.851Z,74.10
2022-10-31T17:21:00.839Z,75.80
2022-10-31T17:23:29.675Z,77.20
2022-10-31T17:25:58.058Z,77.80
2022-10-31T17:28:28.768Z,78.70
2022-10-31T17:30:59.428Z,79.50
2022-10-31T17:33:27.317Z,80.10
2022-10-31T17:35:55.009Z,80.30
2022-10-31T17:38:22.880Z,78.90
2022-10-31T17:40:50.284Z,77.60
2022-10-31T17:43:17.528Z,75.80
2022-10-31T17:45:46.358Z,75.60
2022-10-31T17:48:14.804Z,77.40
2022-10-31T17:50:42.328Z,78.50
2022-10-31T17:53:09.582Z,79.00
2022-10-31T17:55:37.673Z,79.10
2022-10-31T17:58:05.832Z,78.60
2022-10-31T18:00:36.753Z,78.20
2022-10-31T18:03:04.935Z,77.80
2022-10-31T18:05:33.733Z,76.80
2022-10-31T18:08:04.079Z,75.50
2022-10-31T18:10:32.800Z,74.90
2022-10-31T18:13:00.642Z,75.40
2022-10-31T18:15:34.052Z,76.60
2022-10-31T18:18:01.805Z,77.50
2022-10-31T18:20:29.846Z,77.20
2022-10-31T18:22:57.396Z,79.20
2022-10-31T18:25:24.707Z,80.70
2022-10-31T18:27:51.890Z,81.70
2022-10-31T18:30:19.229Z,82.70
2022-10-31T18:32:51.065Z,82.60
2022-10-31T18:35:18.901Z,81.70
2022-10-31T18:37:46.194Z,79.60
2022-10-31T18:40:13.890Z,78.60
2022-10-31T18:42:41.283Z,77.10
2022-10-31T18:45:11.987Z,77.50
2022-10-31T18:47:44.491Z,78.50
2022-10-31T18:50:12.577Z,78.00
2022-10-31T18:52:39.894Z,77.00
2022-10-31T18:55:07.628Z,75.80
2022-10-31T18:57:34.898Z,74.60
2022-10-31T19:00:04.401Z,75.20
2022-10-31T19:02:32.079Z,77.30
2022-10-31T19:05:00.082Z,77.80
2022-10-31T19:07:27.472Z,77.40
2022-10-31T19:09:54.767Z,76.30
2022-10-31T19:12:22.389Z,75.00
2022-10-31T19:14:49.613Z,75.70
2022-10-31T19:17:16.939Z,76.90
2022-10-31T19:19:44.260Z,78.80
2022-10-31T19:22:11.517Z,78.70
2022-10-31T19:24:39.108Z,80.00
2022-10-31T19:27:06.321Z,80.10
2022-10-31T19:29:34.109Z,78.00
2022-10-31T19:32:01.696Z,76.80
2022-10-31T19:34:30.159Z,76.60
2022-10-31T19:36:57.641Z,75.90
2022-10-31T19:39:24.939Z,74.90
2022-10-31T19:41:52.192Z,76.00
2022-10-31T19:44:19.657Z,77.10
2022-10-31T19:46:53.445Z,76.30
2022-10-31T19:49:21.605Z,77.20
2022-10-31T19:51:48.936Z,77.80
2022-10-31T19:54:16.217Z,77.80
2022-10-31T19:56:47.241Z,78.80
2022-10-31T19:59:15.018Z,79.60
2022-10-31T20:01:42.853Z,80.30
2022-10-31T20:04:10.451Z,79.20
2022-10-31T20:06:40.341Z,79.50
2022-10-31T20:09:10.375Z,79.50
2022-10-31T20:11:42.800Z,79.00
2022-10-31T20:14:16.057Z,77.80
2022-10-31T20:16:44.825Z,76.90
2022-10-31T20:19:12.122Z,75.60
2022-10-31T20:21:40.956Z,75.40
2022-10-31T20:24:10.694Z,75.10
2022-10-31T20:26:40.896Z,73.80
2022-10-31T20:29:12.385Z,77.40
2022-10-31T20:31:40.122Z,77.80
2022-10-31T20:34:07.763Z,76.10
2022-10-31T20:36:36.813Z,76.90
2022-10-31T20:39:05.373Z,78.30
2022-10-31T20:41:32.804Z,81.20
2022-10-31T20:44:00.748Z,80.70
2022-10-31T20:46:28.834Z,81.30
2022-10-31T20:48:56.185Z,79.40
2022-10-31T20:51:27.591Z,79.90
2022-10-31T20:53:57.079Z,81.10
2022-10-31T20:56:26.530Z,80.40
2022-10-31T20:58:55.718Z,79.50
2022-10-31T21:01:30.119Z,78.30
2022-10-31T21:03:58.993Z,77.00
2022-10-31T21:06:27.487Z,76.20
2022-10-31T21:08:55.713Z,75.40
2022-10-31T21:11:25.707Z,74.60
2022-10-31T21:13:53.237Z,75.00
2022-10-31T21:16:26.001Z,75.50
2022-10-31T21:18:54.039Z,77.70
2022-10-31T21:21:30.704Z,79.00
2022-10-31T21:24:14.759Z,79.00
2022-10-31T21:26:46.395Z,77.90
2022-10-31T21:29:15.189Z,78.60
2022-10-31T21:31:43.422Z,79.80
2022-10-31T21:34:11.647Z,80.40
2022-10-31T21:36:39.534Z,80.90
2022-10-31T21:39:08.310Z,80.20
2022-10-31T21:41:35.651Z,79.70
2022-10-31T21:44:03.092Z,78.90
2022-10-31T21:46:32.815Z,78.80
2022-10-31T21:49:03.664Z,78.20
2022-10-31T21:51:34.197Z,77.70
2022-10-31T21:54:20.047Z,80.40
2022-10-31T21:56:47.542Z,82.20
2022-10-31T21:59:15.168Z,82.30
2022-10-31T22:01:42.558Z,81.20
2022-10-31T22:04:10.360Z,81.20
2022-10-31T22:06:38.262Z,80.10
2022-10-31T22:09:07.476Z,81.50
2022-10-31T22:11:35.247Z,80.70
2022-10-31T22:14:03.827Z,81.10
2022-10-31T22:16:35.142Z,80.10
2022-10-31T22:19:05.908Z,78.50
2022-10-31T22:21:51.403Z,79.30
2022-10-31T22:24:18.900Z,79.10
2022-10-31T22:26:46.316Z,78.70
2022-10-31T22:29:20.506Z,80.20
2022-10-31T22:31:53.381Z,79.60
2022-10-31T22:34:25.304Z,79.60
2022-10-31T22:36:55.486Z,79.20
2022-10-31T22:39:23.110Z,77.60
2022-10-31T22:41:50.468Z,78.90
2022-10-31T22:44:17.688Z,78.80
2022-10-31T22:46:44.948Z,78.00
2022-10-31T22:49:15.148Z,78.90
2022-10-31T22:51:43.638Z,80.60
2022-10-31T22:54:17.398Z,81.80
2022-10-31T22:56:45.519Z,81.50
2022-10-31T22:59:16.693Z,82.50
2022-10-31T23:01:47.263Z,83.80
2022-10-31T23:04:15.327Z,83.50
2022-10-31T23:06:43.035Z,83.40
2022-10-31T23:09:14.547Z,82.40
2022-10-31T23:11:42.167Z,80.90
2022-10-31T23:14:18.722Z,79.20
2022-10-31T23:16:55.537Z,79.40
2022-10-31T23:19:29.422Z,79.80
2022-10-31T23:22:04.237Z,80.10
2022-10-31T23:24:41.841Z,80.80
2022-10-31T23:27:18.177Z,80.70
2022-10-31T23:29:53.151Z,81.80
2022-10-31T23:32:23.423Z,81.30
2022-10-31T23:34:54.310Z,80.20
2022-10-31T23:37:24.215Z,78.80
2022-10-31T23:39:51.548Z,77.70
2022-10-31T23:42:19.278Z,78.40
2022-10-31T23:44:47.220Z,80.80
2022-10-31T23:47:15.313Z,81.40
2022-10-31T23:49:43.453Z,81.80
2022-10-31T23:52:12.076Z,80.70
2022-10-31T23:54:41.596Z,80.00
2022-10-31T23:57:10.603Z,80.20
2022-10-31T23:59:38.537Z,80.00
